Terminal Aerodrome Forecast
Issued by NWS

Home | Current Version | Previous Version | Graphics & Text | Print | Product List | Glossary Off
Versions: 1 2 3 4 5 6 7 8 9 10 11 12 13 14 15 16

000
FTUS43 KDDC 090520
TAFHYS
TAF
KHYS 090520Z 0906/1006 30007KT P6SM SCT100
     FM091500 33012G22KT P6SM SKC
     FM092100 32010KT P6SM SKC
     FM100000 27007KT P6SM SKC=

USA.gov is the U.S. government's official web portal to all federal, state and local government web resources and services.